Time;durP1;ratioP1;P1;durP2;ratioP2;P2;SDS_P1;SDS_P2;PMS_P1;PMS_P2;Temp;Humidity;BMP_temperature;BMP_pressure;BME280_temperature;BME280_humidity;BME280_pressure;Samples;Min_cycle;Max_cycle;Signal;HPM_P1;HPM_P2
2021/01/14 00:00:27;;;;;;;3.55;0.57;;;3.70;90.30;;;;;;2093221;28;20487;-82
2021/01/14 00:01:28;;;;;;;3.33;0.70;;;3.70;90.40;;;;;;2081053;28;20565;-82
2021/01/14 00:02:29;;;;;;;3.17;0.50;;;3.70;90.30;;;;;;2076860;28;20022;-82
2021/01/14 00:03:29;;;;;;;4.40;0.70;;;3.70;90.30;;;;;;2078511;28;20081;-82
2021/01/14 00:04:30;;;;;;;3.22;0.50;;;3.70;90.30;;;;;;2079797;28;20117;-83
2021/01/14 00:05:31;;;;;;;3.13;0.43;;;3.60;90.30;;;;;;2084275;28;20064;-82
2021/01/14 00:06:31;;;;;;;1.60;0.45;;;3.70;90.30;;;;;;2094255;28;20029;-82
2021/01/14 00:07:32;;;;;;;4.03;0.70;;;3.60;90.30;;;;;;2076430;28;20072;-82
2021/01/14 00:08:33;;;;;;;2.25;0.40;;;3.70;90.30;;;;;;2085346;28;20401;-83
2021/01/14 00:09:33;;;;;;;3.80;0.60;;;3.70;90.30;;;;;;2101712;28;20028;-82
2021/01/14 00:10:36;;;;;;;2.38;0.40;;;3.60;90.30;;;;;;2085245;28;20079;-82
2021/01/14 00:11:36;;;;;;;1.45;0.50;;;3.60;90.30;;;;;;2073711;28;20049;-83
2021/01/14 00:12:40;;;;;;;2.63;0.52;;;3.60;90.30;;;;;;2084893;28;20052;-82
2021/01/14 00:13:41;;;;;;;2.17;0.40;;;3.70;90.30;;;;;;2083491;28;20578;-82
2021/01/14 00:14:42;;;;;;;2.03;0.40;;;3.60;90.30;;;;;;2086178;28;20029;-82
2021/01/14 00:15:42;;;;;;;1.63;0.45;;;3.70;90.30;;;;;;2080043;28;20040;-82
2021/01/14 00:16:43;;;;;;;4.28;0.80;;;3.60;90.30;;;;;;2096808;28;20025;-82
2021/01/14 00:17:47;;;;;;;1.42;0.32;;;3.60;90.30;;;;;;2081001;28;20518;-82
2021/01/14 00:18:48;;;;;;;1.98;0.35;;;3.60;90.30;;;;;;2076437;28;20029;-82
2021/01/14 00:19:49;;;;;;;3.53;0.50;;;3.60;90.20;;;;;;2102000;28;20074;-81
2021/01/14 00:20:49;;;;;;;2.78;0.50;;;3.60;90.20;;;;;;2086010;28;20017;-82
2021/01/14 00:21:50;;;;;;;3.38;0.40;;;3.60;90.30;;;;;;2064696;28;20061;-82
2021/01/14 00:22:50;;;;;;;4.97;0.50;;;3.60;90.20;;;;;;2084433;28;20392;-83
2021/01/14 00:23:51;;;;;;;1.92;0.45;;;3.60;90.20;;;;;;2086475;28;20029;-82
2021/01/14 00:24:52;;;;;;;5.53;0.40;;;3.60;90.30;;;;;;2080915;28;20436;-82
2021/01/14 00:25:52;;;;;;;3.33;0.75;;;3.60;90.20;;;;;;2088408;28;20080;-82
2021/01/14 00:26:53;;;;;;;1.20;0.40;;;3.60;90.20;;;;;;2089282;28;20021;-83
2021/01/14 00:27:55;;;;;;;3.88;0.40;;;3.50;90.20;;;;;;2076522;28;20057;-82
2021/01/14 00:28:55;;;;;;;3.60;0.70;;;3.60;90.20;;;;;;2081353;28;20545;-82
2021/01/14 00:29:56;;;;;;;1.83;0.50;;;3.50;90.20;;;;;;2081018;28;20036;-82
2021/01/14 00:30:57;;;;;;;2.85;0.50;;;3.50;90.20;;;;;;2080679;28;20049;-83
2021/01/14 00:31:57;;;;;;;2.08;0.40;;;3.50;90.20;;;;;;2072195;28;20086;-82
2021/01/14 00:32:59;;;;;;;5.63;0.52;;;3.50;90.20;;;;;;2068010;28;20114;-82
2021/01/14 00:34:00;;;;;;;3.30;0.50;;;3.50;90.40;;;;;;2082388;28;20026;-82
2021/01/14 00:35:01;;;;;;;1.77;0.40;;;3.50;90.10;;;;;;2087199;28;20028;-82
2021/01/14 00:36:02;;;;;;;1.98;0.43;;;3.50;90.20;;;;;;2080139;28;20025;-81
2021/01/14 00:38:27;;;;;;;2.65;0.60;;;3.50;90.20;;;;;;2085529;28;20017;-81
2021/01/14 00:39:28;;;;;;;3.35;0.60;;;3.50;90.20;;;;;;2089359;28;20413;-82
2021/01/14 00:40:32;;;;;;;3.53;0.60;;;3.50;90.10;;;;;;2088356;28;20127;-81
2021/01/14 00:41:37;;;;;;;3.40;0.60;;;3.50;90.10;;;;;;2106165;28;20462;-83
2021/01/14 00:42:38;;;;;;;1.95;0.50;;;3.50;90.10;;;;;;2103641;28;20017;-82
2021/01/14 00:43:38;;;;;;;3.33;0.90;;;3.50;90.10;;;;;;2107065;28;20055;-82
2021/01/14 00:44:39;;;;;;;2.42;0.40;;;3.50;90.10;;;;;;2112350;28;20095;-82
2021/01/14 00:45:40;;;;;;;1.80;0.50;;;3.40;90.10;;;;;;2092792;28;20026;-81
2021/01/14 00:46:41;;;;;;;1.40;0.40;;;3.40;90.10;;;;;;2088851;28;20032;-81
2021/01/14 00:47:44;;;;;;;2.90;0.60;;;3.50;90.10;;;;;;2092125;28;20072;-81
2021/01/14 00:48:45;;;;;;;2.65;0.57;;;3.50;90.10;;;;;;2098459;28;20020;-83
2021/01/14 00:49:46;;;;;;;2.38;0.50;;;3.40;90.00;;;;;;2093939;28;20507;-82
2021/01/14 00:50:46;;;;;;;3.10;0.75;;;3.40;90.00;;;;;;2077987;28;20056;-82
2021/01/14 00:51:47;;;;;;;2.70;0.38;;;3.40;90.00;;;;;;2085470;28;20097;-82
2021/01/14 00:52:48;;;;;;;2.85;0.50;;;3.40;90.00;;;;;;2100328;28;20030;-81
2021/01/14 00:53:48;;;;;;;4.95;0.57;;;3.40;90.00;;;;;;2102603;28;20016;-81
2021/01/14 00:54:49;;;;;;;5.63;0.70;;;3.40;90.00;;;;;;2098787;28;20017;-81
2021/01/14 00:55:49;;;;;;;1.75;0.40;;;3.40;90.00;;;;;;2099405;28;20033;-81
2021/01/14 00:56:50;;;;;;;2.40;0.50;;;3.40;90.20;;;;;;2095838;28;20037;-81
2021/01/14 00:57:51;;;;;;;3.10;0.60;;;3.40;90.00;;;;;;2079448;28;20037;-81
2021/01/14 00:58:52;;;;;;;2.92;0.65;;;3.40;90.00;;;;;;2089321;28;20475;-82
2021/01/14 00:59:52;;;;;;;2.33;0.40;;;3.30;90.00;;;;;;2086047;28;20028;-81
2021/01/14 01:00:53;;;;;;;1.92;0.40;;;3.30;90.00;;;;;;2092887;28;20057;-82
2021/01/14 01:01:54;;;;;;;2.67;0.57;;;3.30;90.00;;;;;;2092936;28;20636;-81
2021/01/14 01:02:55;;;;;;;2.17;0.40;;;3.30;90.00;;;;;;2079653;28;20061;-81
2021/01/14 01:03:56;;;;;;;2.20;0.40;;;3.30;90.10;;;;;;2085576;28;20399;-82
2021/01/14 01:04:56;;;;;;;2.33;0.40;;;3.30;90.10;;;;;;2084925;28;20021;-82
2021/01/14 01:05:57;;;;;;;1.38;0.40;;;3.30;90.10;;;;;;2070877;28;20030;-82
2021/01/14 01:06:58;;;;;;;2.03;0.47;;;3.30;90.10;;;;;;2077093;28;20049;-82
2021/01/14 01:07:59;;;;;;;4.05;0.50;;;3.30;90.10;;;;;;2088897;28;20033;-82
2021/01/14 01:09:01;;;;;;;1.95;0.65;;;3.30;90.10;;;;;;2097379;28;20059;-82
2021/01/14 01:10:02;;;;;;;2.75;0.52;;;3.30;90.10;;;;;;2098023;28;20052;-82
2021/01/14 01:11:03;;;;;;;1.25;0.40;;;3.30;90.10;;;;;;2099552;28;20025;-81
2021/01/14 01:12:04;;;;;;;2.13;0.60;;;3.30;90.10;;;;;;2082026;28;20056;-81
2021/01/14 01:13:05;;;;;;;2.75;0.60;;;3.30;90.20;;;;;;2104284;28;20036;-81
2021/01/14 01:14:06;;;;;;;1.67;0.40;;;3.30;90.20;;;;;;2109659;28;20082;-81
2021/01/14 01:15:07;;;;;;;1.40;0.38;;;3.20;90.20;;;;;;2097247;28;20044;-83
2021/01/14 01:16:15;;;;;;;4.10;0.60;;;3.20;90.20;;;;;;2106041;28;20030;-82
2021/01/14 01:17:16;;;;;;;3.95;0.70;;;3.20;90.20;;;;;;2104861;28;20036;-82
2021/01/14 01:18:16;;;;;;;2.30;0.60;;;3.20;90.20;;;;;;2079730;28;20140;-82
2021/01/14 01:19:17;;;;;;;2.90;0.40;;;3.20;90.20;;;;;;2072164;28;20400;-82
2021/01/14 01:20:18;;;;;;;2.13;0.50;;;3.10;90.20;;;;;;2103200;28;20123;-82
2021/01/14 01:21:19;;;;;;;2.92;0.32;;;3.10;90.20;;;;;;2105446;28;21081;-82
2021/01/14 01:22:20;;;;;;;1.65;0.50;;;3.10;90.30;;;;;;2082714;28;20033;-82
2021/01/14 01:23:20;;;;;;;1.17;0.40;;;3.10;90.60;;;;;;2079068;28;20559;-82
2021/01/14 01:24:21;;;;;;;2.70;0.52;;;3.10;90.30;;;;;;2081618;28;20415;-82
2021/01/14 01:25:22;;;;;;;2.40;0.50;;;3.00;90.30;;;;;;2086370;28;20475;-82
2021/01/14 01:26:22;;;;;;;1.10;0.40;;;3.00;90.30;;;;;;2085612;28;20140;-82
2021/01/14 01:27:23;;;;;;;2.72;0.68;;;3.00;90.30;;;;;;2085788;28;20491;-82
2021/01/14 01:28:26;;;;;;;2.78;0.90;;;3.00;90.30;;;;;;2087585;28;20033;-82
2021/01/14 01:29:27;;;;;;;3.17;0.90;;;3.00;90.40;;;;;;2089318;28;20037;-82
2021/01/14 01:30:27;;;;;;;1.23;0.38;;;3.00;90.40;;;;;;2097060;28;20142;-81
2021/01/14 01:31:28;;;;;;;1.35;0.50;;;3.00;90.40;;;;;;2088565;28;20512;-82
2021/01/14 01:32:29;;;;;;;3.15;0.52;;;3.00;90.40;;;;;;2075272;28;20508;-82
2021/01/14 01:33:29;;;;;;;2.58;0.50;;;3.00;90.40;;;;;;2086569;28;20519;-82
2021/01/14 01:34:30;;;;;;;4.75;0.57;;;3.00;90.40;;;;;;2073044;28;20507;-82
2021/01/14 01:35:31;;;;;;;1.27;0.40;;;2.90;90.40;;;;;;2055854;28;20102;-82
2021/01/14 01:36:31;;;;;;;2.58;0.55;;;2.90;90.40;;;;;;2074542;28;20121;-83
2021/01/14 01:37:32;;;;;;;3.22;0.50;;;2.90;90.40;;;;;;2076124;28;20542;-82
2021/01/14 01:38:33;;;;;;;2.65;0.60;;;2.90;90.40;;;;;;2090716;28;20022;-82
2021/01/14 01:39:34;;;;;;;3.63;0.40;;;2.90;90.40;;;;;;2100161;28;20434;-82
2021/01/14 01:40:34;;;;;;;3.65;0.50;;;2.90;90.40;;;;;;2087072;28;20031;-82
2021/01/14 01:41:35;;;;;;;3.83;0.75;;;2.90;90.40;;;;;;2075749;28;20027;-82
2021/01/14 01:42:35;;;;;;;4.43;0.50;;;2.90;90.40;;;;;;2069099;28;20022;-82
2021/01/14 01:43:36;;;;;;;3.92;0.60;;;2.90;90.40;;;;;;2082953;28;20054;-82
2021/01/14 01:44:37;;;;;;;1.95;0.50;;;2.90;90.40;;;;;;2093509;28;20398;-83
2021/01/14 01:45:38;;;;;;;2.92;0.50;;;2.90;90.40;;;;;;2101816;28;20021;-82
2021/01/14 01:46:39;;;;;;;2.63;0.60;;;2.90;90.40;;;;;;2083153;28;20036;-82
2021/01/14 01:47:40;;;;;;;3.80;0.60;;;2.90;90.40;;;;;;2089203;28;20029;-83
2021/01/14 01:48:40;;;;;;;2.63;0.50;;;2.90;90.40;;;;;;2083881;28;20507;-83
2021/01/14 01:49:41;;;;;;;1.88;0.52;;;2.90;90.40;;;;;;2087692;28;20138;-83
2021/01/14 01:50:43;;;;;;;2.90;0.50;;;2.90;90.40;;;;;;2095035;28;20039;-83
2021/01/14 01:51:44;;;;;;;1.17;0.38;;;2.80;90.40;;;;;;2091455;28;20098;-82
2021/01/14 01:52:45;;;;;;;2.50;0.50;;;2.80;90.40;;;;;;2084500;28;20025;-82
2021/01/14 01:53:47;;;;;;;2.55;0.50;;;2.80;90.40;;;;;;2085514;28;20049;-82
2021/01/14 01:54:47;;;;;;;3.08;0.40;;;2.80;90.40;;;;;;2101504;28;20090;-82
2021/01/14 01:55:49;;;;;;;3.70;0.77;;;2.80;90.40;;;;;;2092619;28;20549;-82
2021/01/14 01:56:50;;;;;;;2.72;0.60;;;2.80;90.40;;;;;;2096558;28;20040;-82
2021/01/14 01:57:51;;;;;;;3.03;0.50;;;2.80;90.40;;;;;;2089329;28;20168;-82
2021/01/14 01:58:57;;;;;;;2.28;0.43;;;2.80;90.40;;;;;;2095090;28;20028;-82
2021/01/14 01:59:57;;;;;;;3.30;0.60;;;2.80;90.40;;;;;;2087610;28;20028;-82
2021/01/14 02:00:58;;;;;;;1.40;0.47;;;2.80;90.40;;;;;;2087856;28;20037;-82
2021/01/14 02:02:20;;;;;;;2.47;0.45;;;2.80;90.30;;;;;;2088726;28;20068;-82
2021/01/14 02:03:21;;;;;;;2.42;0.40;;;2.80;90.40;;;;;;2086942;28;20536;-82
2021/01/14 02:04:21;;;;;;;3.08;0.60;;;2.80;90.40;;;;;;2086136;28;20024;-82
2021/01/14 02:05:22;;;;;;;2.58;0.60;;;2.80;90.40;;;;;;2086319;28;20030;-82
2021/01/14 02:06:23;;;;;;;1.90;0.40;;;2.80;90.30;;;;;;2080497;28;20479;-82
2021/01/14 02:07:38;;;;;;;2.45;0.50;;;2.80;90.30;;;;;;2087223;28;20094;-82
2021/01/14 02:08:58;;;;;;;2.08;0.47;;;2.80;90.30;;;;;;2085644;28;20025;-82
2021/01/14 02:10:01;;;;;;;2.33;0.45;;;2.80;90.30;;;;;;2080466;28;20120;-82
2021/01/14 02:11:32;;;;;;;2.33;0.40;;;2.80;90.30;;;;;;2096973;28;20494;-82
2021/01/14 02:12:40;;;;;;;3.42;0.50;;;2.80;90.30;;;;;;2086279;28;20041;-82
2021/01/14 02:14:11;;;;;;;2.55;0.50;;;2.80;90.30;;;;;;2080352;28;20018;-82
2021/01/14 02:15:13;;;;;;;3.38;0.82;;;2.80;90.20;;;;;;2083493;28;20112;-82
2021/01/14 02:16:14;;;;;;;3.75;0.50;;;2.70;90.20;;;;;;2081178;28;20060;-82
2021/01/14 02:17:15;;;;;;;2.92;0.52;;;2.80;90.20;;;;;;2101679;28;20032;-82
2021/01/14 02:18:18;;;;;;;2.75;0.40;;;2.80;90.20;;;;;;2094480;28;20055;-82
2021/01/14 02:19:42;;;;;;;1.52;0.38;;;2.80;90.20;;;;;;2078056;28;20037;-82
2021/01/14 02:20:46;;;;;;;1.70;0.40;;;2.80;90.20;;;;;;2082081;28;20030;-82
2021/01/14 02:21:50;;;;;;;2.13;0.40;;;2.80;90.20;;;;;;2096449;28;20016;-81
2021/01/14 02:22:58;;;;;;;2.72;0.60;;;2.80;90.20;;;;;;2101435;28;20160;-81
2021/01/14 02:24:11;;;;;;;2.20;0.50;;;2.80;90.20;;;;;;2087495;28;20083;-81
2021/01/14 02:25:21;;;;;;;1.13;0.45;;;2.80;90.20;;;;;;2083301;28;20029;-81
2021/01/14 02:26:27;;;;;;;1.70;0.47;;;2.80;90.20;;;;;;2087658;28;20033;-82
2021/01/14 02:27:28;;;;;;;1.42;0.35;;;2.80;90.10;;;;;;2085805;28;20037;-82
2021/01/14 02:28:30;;;;;;;1.75;0.40;;;2.70;90.10;;;;;;2088662;28;20063;-82
2021/01/14 02:29:32;;;;;;;3.70;0.57;;;2.80;90.10;;;;;;2083591;28;20089;-82
2021/01/14 02:30:33;;;;;;;2.63;0.60;;;2.80;90.10;;;;;;2080537;28;20452;-82
2021/01/14 02:31:34;;;;;;;2.45;0.40;;;2.80;90.10;;;;;;2088592;28;20577;-82
2021/01/14 02:32:35;;;;;;;2.45;0.60;;;2.80;90.10;;;;;;2093742;28;20028;-82
2021/01/14 02:33:35;;;;;;;1.10;0.50;;;2.80;90.10;;;;;;2096255;28;20076;-82
2021/01/14 02:34:36;;;;;;;3.33;0.50;;;2.80;90.10;;;;;;2087396;28;20387;-82
2021/01/14 02:35:36;;;;;;;2.45;0.65;;;2.80;90.10;;;;;;2095831;28;20087;-82
2021/01/14 02:36:37;;;;;;;3.70;0.50;;;2.80;90.00;;;;;;2090078;28;20387;-82
2021/01/14 02:37:38;;;;;;;2.03;0.40;;;2.80;90.00;;;;;;2081501;28;20025;-82
2021/01/14 02:38:38;;;;;;;1.75;0.30;;;2.80;90.00;;;;;;2087811;28;20407;-82
2021/01/14 02:39:39;;;;;;;1.60;0.30;;;2.80;90.00;;;;;;2078703;28;20052;-82
2021/01/14 02:40:40;;;;;;;2.92;0.47;;;2.80;90.00;;;;;;2072729;28;20028;-81
2021/01/14 02:41:40;;;;;;;1.20;0.30;;;2.80;89.90;;;;;;2080753;28;20026;-82
2021/01/14 02:42:41;;;;;;;2.67;0.50;;;2.80;89.90;;;;;;2080203;28;20128;-82
2021/01/14 02:43:45;;;;;;;2.70;0.50;;;2.70;89.80;;;;;;2081202;28;20036;-82
2021/01/14 02:44:46;;;;;;;2.67;0.45;;;2.80;89.80;;;;;;2090512;28;20028;-83
2021/01/14 02:45:47;;;;;;;1.55;0.40;;;2.80;89.80;;;;;;2089115;28;20108;-82
2021/01/14 02:46:48;;;;;;;1.70;0.40;;;2.80;89.70;;;;;;2088597;28;20033;-82
2021/01/14 02:47:50;;;;;;;3.40;0.52;;;2.80;89.60;;;;;;2083134;28;20043;-82
2021/01/14 02:49:02;;;;;;;3.17;0.55;;;2.80;89.60;;;;;;2096747;28;20521;-82
2021/01/14 02:50:06;;;;;;;1.92;0.40;;;2.80;89.60;;;;;;2087503;28;20025;-82
2021/01/14 02:51:17;;;;;;;1.92;0.40;;;2.80;89.50;;;;;;2084177;28;20037;-81
2021/01/14 02:52:19;;;;;;;2.22;0.30;;;2.80;89.50;;;;;;2095049;28;20020;-82
2021/01/14 02:53:22;;;;;;;1.17;0.30;;;2.80;89.50;;;;;;2095657;28;20375;-82
2021/01/14 02:54:24;;;;;;;1.23;0.40;;;2.80;89.50;;;;;;2090429;28;20024;-82
2021/01/14 02:55:25;;;;;;;1.00;0.30;;;2.80;89.40;;;;;;2094113;28;20029;-82
2021/01/14 02:56:27;;;;;;;2.35;0.40;;;2.80;89.30;;;;;;2089733;28;20056;-82
2021/01/14 02:57:28;;;;;;;2.63;0.85;;;2.80;89.30;;;;;;2081719;28;20029;-82
2021/01/14 02:58:29;;;;;;;1.45;0.40;;;2.80;89.20;;;;;;2080291;28;20037;-82
2021/01/14 02:59:30;;;;;;;1.33;0.20;;;2.80;89.20;;;;;;2069341;28;20088;-82
2021/01/14 03:00:31;;;;;;;1.50;0.38;;;2.80;89.20;;;;;;2076863;28;20432;-82
2021/01/14 03:01:33;;;;;;;2.60;0.55;;;2.80;89.20;;;;;;2080991;28;20030;-82
2021/01/14 03:02:33;;;;;;;2.17;0.30;;;2.70;89.20;;;;;;2070426;28;20715;-81
2021/01/14 03:03:37;;;;;;;1.63;0.40;;;2.80;89.20;;;;;;2071334;28;20026;-82
2021/01/14 03:04:37;;;;;;;1.70;0.40;;;2.70;89.10;;;;;;2084688;28;20180;-82
2021/01/14 03:05:38;;;;;;;1.60;0.32;;;2.80;89.10;;;;;;2093387;28;20033;-82
2021/01/14 03:06:38;;;;;;;1.85;0.30;;;2.70;89.00;;;;;;2073561;28;20539;-82
2021/01/14 03:07:42;;;;;;;3.10;0.50;;;2.70;88.90;;;;;;2073318;28;20029;-82
2021/01/14 03:08:42;;;;;;;1.73;0.30;;;2.70;88.80;;;;;;2073581;28;20030;-82
2021/01/14 03:09:43;;;;;;;2.78;0.43;;;2.70;88.80;;;;;;2073053;28;20045;-82
2021/01/14 03:10:44;;;;;;;2.90;0.47;;;2.70;88.80;;;;;;2071355;28;20484;-82
2021/01/14 03:11:45;;;;;;;1.42;0.40;;;2.70;88.80;;;;;;2065550;28;20046;-82
2021/01/14 03:12:45;;;;;;;1.70;0.30;;;2.70;88.80;;;;;;2087056;28;20486;-82
2021/01/14 03:13:46;;;;;;;1.35;0.30;;;2.70;88.80;;;;;;2081832;28;20033;-82
2021/01/14 03:14:47;;;;;;;2.15;0.50;;;2.70;88.80;;;;;;2085580;28;20033;-82
2021/01/14 03:15:47;;;;;;;2.60;0.43;;;2.70;88.80;;;;;;2098051;28;20032;-82
2021/01/14 03:16:48;;;;;;;2.00;0.30;;;2.70;88.80;;;;;;2085715;28;20020;-81
2021/01/14 03:17:49;;;;;;;2.88;0.50;;;2.70;88.80;;;;;;2089085;28;20507;-81
2021/01/14 03:18:51;;;;;;;2.40;0.50;;;2.70;88.70;;;;;;2087282;28;20029;-81
2021/01/14 03:19:55;;;;;;;1.67;0.32;;;2.70;88.70;;;;;;2078622;28;20486;-81
2021/01/14 03:20:55;;;;;;;2.38;0.40;;;2.70;88.70;;;;;;2085585;28;20032;-81
2021/01/14 03:22:00;;;;;;;3.50;0.55;;;2.70;88.80;;;;;;2080360;28;20029;-81
2021/01/14 03:23:00;;;;;;;2.90;0.32;;;2.70;88.80;;;;;;2079091;28;20025;-81
2021/01/14 03:24:01;;;;;;;2.67;0.43;;;2.70;88.80;;;;;;2085171;28;20025;-81
2021/01/14 03:25:02;;;;;;;1.85;0.40;;;2.70;88.80;;;;;;2077792;28;20013;-81
2021/01/14 03:26:03;;;;;;;2.67;0.50;;;2.70;88.90;;;;;;2089728;28;20084;-81
2021/01/14 03:27:04;;;;;;;3.45;0.50;;;2.70;88.80;;;;;;2101236;28;20092;-81
2021/01/14 03:28:05;;;;;;;2.67;0.40;;;2.70;88.80;;;;;;2091319;28;20067;-81
2021/01/14 03:29:06;;;;;;;1.40;0.40;;;2.60;88.70;;;;;;2077827;28;20042;-80
2021/01/14 03:30:08;;;;;;;2.50;0.57;;;2.60;88.70;;;;;;2087947;28;20449;-81
2021/01/14 03:31:13;;;;;;;2.38;0.73;;;2.60;88.70;;;;;;2095234;28;20093;-81
2021/01/14 03:32:13;;;;;;;2.83;0.38;;;2.60;88.80;;;;;;2089996;28;20025;-81
2021/01/14 03:33:14;;;;;;;2.33;0.40;;;2.60;88.80;;;;;;2086101;28;20111;-81
2021/01/14 03:34:14;;;;;;;1.55;0.40;;;2.60;89.40;;;;;;2083020;28;20583;-81
2021/01/14 03:35:15;;;;;;;2.17;0.30;;;2.60;88.80;;;;;;2097072;28;20024;-81
2021/01/14 03:36:19;;;;;;;1.60;0.35;;;2.60;88.80;;;;;;2081694;28;20021;-81
2021/01/14 03:37:20;;;;;;;2.88;0.40;;;2.50;88.70;;;;;;2081956;28;20025;-80
2021/01/14 03:38:21;;;;;;;1.30;0.40;;;2.50;88.60;;;;;;2087740;28;20033;-81
2021/01/14 03:39:22;;;;;;;1.38;0.30;;;2.50;88.60;;;;;;2084360;28;20033;-81
2021/01/14 03:40:23;;;;;;;1.27;0.30;;;2.50;88.70;;;;;;2095114;28;20700;-82
2021/01/14 03:41:23;;;;;;;1.92;0.40;;;2.50;88.70;;;;;;2097783;28;20017;-80
2021/01/14 03:42:24;;;;;;;2.00;0.40;;;2.50;88.70;;;;;;2088987;28;20024;-81
2021/01/14 03:43:24;;;;;;;1.77;0.30;;;2.50;88.70;;;;;;2073031;28;20050;-81
2021/01/14 03:44:25;;;;;;;2.60;0.30;;;2.50;88.70;;;;;;2071580;28;20069;-81
2021/01/14 03:45:26;;;;;;;2.35;0.38;;;2.50;88.70;;;;;;2081037;28;20060;-81
2021/01/14 03:46:27;;;;;;;2.03;0.30;;;2.40;89.20;;;;;;2080211;28;20037;-81
2021/01/14 03:47:27;;;;;;;1.65;0.38;;;2.40;88.60;;;;;;2072435;28;20022;-81
2021/01/14 03:48:28;;;;;;;2.30;0.43;;;2.40;88.70;;;;;;2078653;28;20036;-81
2021/01/14 03:49:28;;;;;;;2.35;0.40;;;2.40;88.70;;;;;;2084976;28;20120;-81
2021/01/14 03:50:29;;;;;;;2.33;0.40;;;2.40;88.70;;;;;;2082228;28;20021;-81
2021/01/14 03:51:30;;;;;;;1.67;0.40;;;2.40;88.70;;;;;;2080812;28;20041;-82
2021/01/14 03:52:31;;;;;;;1.38;0.28;;;2.40;88.70;;;;;;2072737;28;20018;-82
2021/01/14 03:53:31;;;;;;;2.72;0.43;;;2.40;88.60;;;;;;2083597;28;20568;-81
2021/01/14 03:54:32;;;;;;;2.17;0.40;;;2.40;88.60;;;;;;2088985;28;20060;-81
2021/01/14 03:55:32;;;;;;;2.22;0.40;;;2.40;88.60;;;;;;2080264;28;20398;-81
2021/01/14 03:56:38;;;;;;;2.65;0.50;;;2.40;88.60;;;;;;2066501;28;20022;-81
2021/01/14 03:57:38;;;;;;;2.15;0.38;;;2.40;88.60;;;;;;2081124;28;20418;-81
2021/01/14 03:58:39;;;;;;;3.47;0.40;;;2.40;88.60;;;;;;2082419;28;20025;-81
2021/01/14 03:59:40;;;;;;;2.60;0.40;;;2.40;88.60;;;;;;2087293;28;20032;-81
2021/01/14 04:00:40;;;;;;;1.27;0.32;;;2.40;88.60;;;;;;2095770;28;20024;-81
2021/01/14 04:01:41;;;;;;;2.33;0.45;;;2.40;88.60;;;;;;2094164;28;20496;-81
2021/01/14 04:02:41;;;;;;;2.83;0.40;;;2.40;88.60;;;;;;2081120;28;20029;-81
2021/01/14 04:03:43;;;;;;;2.97;0.35;;;2.40;88.60;;;;;;2078244;28;20025;-81
2021/01/14 04:04:43;;;;;;;1.65;0.40;;;2.30;88.60;;;;;;2085683;28;20563;-81
2021/01/14 04:05:44;;;;;;;2.00;0.30;;;2.30;88.70;;;;;;2088584;28;20116;-81
2021/01/14 04:06:45;;;;;;;1.23;0.30;;;2.30;88.70;;;;;;2081153;28;20037;-80
2021/01/14 04:07:47;;;;;;;1.98;0.43;;;2.30;88.70;;;;;;2080976;28;20083;-80
2021/01/14 04:08:47;;;;;;;1.83;0.30;;;2.30;88.70;;;;;;2082141;28;20045;-81
2021/01/14 04:09:48;;;;;;;1.38;0.20;;;2.30;88.70;;;;;;2089490;28;20021;-81
2021/01/14 04:10:51;;;;;;;1.40;0.40;;;2.30;88.80;;;;;;2096110;28;20025;-81
2021/01/14 04:11:52;;;;;;;1.13;0.40;;;2.30;88.80;;;;;;2074475;28;20030;-81
2021/01/14 04:12:53;;;;;;;3.40;0.47;;;2.20;88.80;;;;;;2076006;28;20029;-81
2021/01/14 04:13:54;;;;;;;2.25;0.40;;;2.20;88.90;;;;;;2070477;28;20136;-81
2021/01/14 04:14:58;;;;;;;2.15;0.30;;;2.20;88.90;;;;;;2085803;28;20052;-81
2021/01/14 04:15:59;;;;;;;2.13;0.60;;;2.20;88.90;;;;;;2091887;28;20025;-81
2021/01/14 04:17:00;;;;;;;2.97;0.63;;;2.20;88.90;;;;;;2078053;28;20050;-81
2021/01/14 04:18:01;;;;;;;3.50;0.43;;;2.20;88.90;;;;;;2086355;28;20029;-81
2021/01/14 04:19:01;;;;;;;1.08;0.32;;;2.30;89.00;;;;;;2076092;28;20109;-82
2021/01/14 04:20:02;;;;;;;1.30;0.20;;;2.20;88.90;;;;;;2083111;28;20038;-80
2021/01/14 04:21:03;;;;;;;2.67;0.50;;;2.20;88.80;;;;;;2085504;28;20022;-81
2021/01/14 04:22:04;;;;;;;1.13;0.30;;;2.20;88.80;;;;;;2072241;28;20034;-81
2021/01/14 04:23:05;;;;;;;2.13;0.40;;;2.30;88.90;;;;;;2073224;28;20523;-80
2021/01/14 04:24:06;;;;;;;4.32;0.45;;;2.20;88.80;;;;;;2077932;28;20033;-80
2021/01/14 04:25:07;;;;;;;3.00;0.50;;;2.20;88.80;;;;;;2075452;28;20061;-80
2021/01/14 04:26:08;;;;;;;2.00;0.40;;;2.20;88.90;;;;;;2081079;28;20082;-80
2021/01/14 04:27:09;;;;;;;2.58;0.40;;;2.20;88.80;;;;;;2088444;28;20453;-80
2021/01/14 04:28:09;;;;;;;1.52;0.30;;;2.20;88.80;;;;;;2080169;28;20080;-80
2021/01/14 04:29:10;;;;;;;2.08;0.40;;;2.20;88.80;;;;;;2072063;28;20424;-82
2021/01/14 04:30:11;;;;;;;1.58;0.30;;;2.20;88.80;;;;;;2075740;28;20034;-81
2021/01/14 04:31:12;;;;;;;2.05;0.40;;;2.20;88.70;;;;;;2091618;28;20036;-80
2021/01/14 04:32:13;;;;;;;1.73;0.40;;;2.20;88.70;;;;;;2094347;28;20094;-81
2021/01/14 04:33:14;;;;;;;1.73;0.20;;;2.20;88.70;;;;;;2086963;28;20062;-80
2021/01/14 04:34:15;;;;;;;1.55;0.38;;;2.20;88.70;;;;;;2075854;28;20042;-81
2021/01/14 04:35:15;;;;;;;1.92;0.20;;;2.20;88.70;;;;;;2079627;28;20117;-81
2021/01/14 04:36:16;;;;;;;2.70;0.30;;;2.20;88.60;;;;;;2089103;28;20136;-80
2021/01/14 04:37:17;;;;;;;1.50;0.30;;;2.20;88.60;;;;;;2081215;28;20030;-81
2021/01/14 04:38:23;;;;;;;2.20;0.35;;;2.20;88.60;;;;;;2077734;28;20507;-81
2021/01/14 04:39:23;;;;;;;2.47;0.40;;;2.20;88.60;;;;;;2075179;28;20026;-81
2021/01/14 04:40:24;;;;;;;1.55;0.30;;;2.20;88.60;;;;;;2086842;28;20116;-81
2021/01/14 04:41:46;;;;;;;1.75;0.30;;;2.20;88.50;;;;;;2080830;28;20017;-81
2021/01/14 04:42:50;;;;;;;1.92;0.20;;;2.10;88.40;;;;;;2077383;28;20029;-80
2021/01/14 04:43:51;;;;;;;2.30;0.40;;;2.10;88.40;;;;;;2075457;28;20026;-81
2021/01/14 04:44:51;;;;;;;1.73;0.40;;;2.10;88.40;;;;;;2088695;28;20401;-81
2021/01/14 04:46:04;;;;;;;2.00;0.32;;;2.10;88.50;;;;;;2087314;28;20123;-80
2021/01/14 04:47:11;;;;;;;1.63;0.40;;;2.10;88.50;;;;;;2075609;28;20041;-81
2021/01/14 04:48:12;;;;;;;2.80;0.40;;;2.10;88.50;;;;;;2077891;28;20022;-81
2021/01/14 04:49:17;;;;;;;1.52;0.40;;;2.10;88.50;;;;;;2089352;28;20029;-81
2021/01/14 04:50:18;;;;;;;1.27;0.35;;;2.00;88.40;;;;;;2084284;28;20066;-81
2021/01/14 04:51:20;;;;;;;1.55;0.30;;;2.00;88.40;;;;;;2081464;28;20087;-81
2021/01/14 04:52:26;;;;;;;2.20;0.50;;;2.00;88.50;;;;;;2093101;28;20466;-80
2021/01/14 04:53:30;;;;;;;2.88;0.50;;;2.00;88.50;;;;;;2088211;28;20035;-81
2021/01/14 04:54:35;;;;;;;3.08;0.43;;;2.00;88.50;;;;;;2083849;28;20522;-81
2021/01/14 04:55:44;;;;;;;3.15;0.43;;;2.00;88.50;;;;;;2085866;28;20061;-81
2021/01/14 04:56:47;;;;;;;2.00;0.30;;;2.00;88.50;;;;;;2081034;28;20120;-80
2021/01/14 04:57:50;;;;;;;1.60;0.30;;;2.00;88.40;;;;;;2093726;28;20039;-80
2021/01/14 04:58:50;;;;;;;1.35;0.30;;;2.00;88.40;;;;;;2101948;28;20024;-81
2021/01/14 04:59:53;;;;;;;2.53;0.40;;;2.00;88.40;;;;;;2097203;28;20380;-80
2021/01/14 05:00:59;;;;;;;3.03;0.73;;;2.00;88.40;;;;;;2096753;28;20031;-80
2021/01/14 05:02:04;;;;;;;1.90;0.40;;;2.00;88.40;;;;;;2097139;28;20021;-80
2021/01/14 05:03:06;;;;;;;3.50;0.40;;;2.00;88.40;;;;;;2100740;28;20025;-80
2021/01/14 05:04:09;;;;;;;3.08;0.30;;;2.00;88.40;;;;;;2106287;28;20029;-80
2021/01/14 05:05:12;;;;;;;2.13;0.40;;;2.00;88.40;;;;;;2096507;28;20021;-80
2021/01/14 05:06:24;;;;;;;1.63;0.38;;;2.00;88.40;;;;;;2093155;28;20041;-80
2021/01/14 05:07:32;;;;;;;2.55;0.40;;;2.00;88.40;;;;;;2098152;28;20017;-80
2021/01/14 05:08:33;;;;;;;0.55;0.25;;;2.00;88.40;;;;;;2089650;28;20025;-81
2021/01/14 05:09:40;;;;;;;0.85;0.22;;;2.00;88.40;;;;;;2064722;28;20018;-80
2021/01/14 05:10:43;;;;;;;2.53;0.43;;;2.00;88.40;;;;;;2066121;28;20046;-81
2021/01/14 05:11:52;;;;;;;1.67;0.40;;;2.00;88.40;;;;;;2090936;28;20560;-80
2021/01/14 05:12:55;;;;;;;4.55;0.40;;;2.00;88.40;;;;;;2096168;28;20078;-81
2021/01/14 05:14:02;;;;;;;2.10;0.40;;;2.00;88.40;;;;;;2105437;28;20021;-80
2021/01/14 05:15:04;;;;;;;1.85;0.40;;;2.00;88.40;;;;;;2096303;28;20021;-80
2021/01/14 05:16:05;;;;;;;1.95;0.30;;;2.00;88.50;;;;;;2097200;28;20040;-81
2021/01/14 05:17:05;;;;;;;0.55;0.30;;;2.00;88.50;;;;;;2105634;28;20047;-80
2021/01/14 05:18:06;;;;;;;1.65;0.35;;;2.00;88.90;;;;;;2090269;28;20112;-80
2021/01/14 05:19:07;;;;;;;1.73;0.40;;;2.00;88.50;;;;;;2088969;28;20113;-80
2021/01/14 05:20:08;;;;;;;0.93;0.35;;;2.00;88.50;;;;;;2090066;28;20033;-80
2021/01/14 05:21:09;;;;;;;1.35;0.30;;;2.00;88.50;;;;;;2103591;28;20478;-80
2021/01/14 05:22:09;;;;;;;3.13;0.32;;;2.00;88.50;;;;;;2096738;28;20078;-80
2021/01/14 05:23:12;;;;;;;0.75;0.25;;;2.00;88.60;;;;;;2076016;28;20060;-80
2021/01/14 05:24:15;;;;;;;1.75;0.35;;;2.00;88.60;;;;;;2088558;28;20048;-81
2021/01/14 05:25:15;;;;;;;4.30;0.30;;;2.00;88.60;;;;;;2102276;28;20031;-81
2021/01/14 05:26:31;;;;;;;2.15;0.35;;;2.00;88.60;;;;;;2097501;28;20143;-81
2021/01/14 05:27:35;;;;;;;0.65;0.20;;;2.00;88.60;;;;;;2087482;28;20115;-80
2021/01/14 05:28:36;;;;;;;2.65;0.35;;;2.00;88.60;;;;;;2088107;28;20031;-80
2021/01/14 05:29:36;;;;;;;1.15;0.30;;;2.00;88.60;;;;;;2089081;28;20025;-80